Crystal Falls, MI

8:49 AM CST on February 12, 2016 (GMT -0600)
Bates Tower | | Change Station
CLOSE
Current Station
Personal Weather Station
Location: Iron River, MI
Elevation: 1765 ft
Nearby Weather Stations
Active Advisory: Wind Chill Advisory

Elev 1765 ft 46.10 °N, 88.54 °W | Updated 2 minutes ago

Overcast
Overcast
6.7 °F
Feels Like 7 °F
N
2.0
Wind Variable Wind from WNW
Gusts 11.0 mph

Today
High -- | Low -- °F
--% Chance of Precip.
Yesterday
High -- | Low -- °F
Precip. -- in
Pressure 29.98 in
Visibility 5.0 miles
Clouds Few 1700 ft
Windchill 7 °F
Dew Point 1 °F
Humidity 78%
Rainfall 0.00 in
Snow Depth Not available.
7:01 AM 5:14 PM
Waxing Crescent, 21% visible
SPECI KIMT 121434Z AUTO 30011KT 5SM HZ FEW017 M13/M17 A2998 RMK AO2 T11281167 TSNO
Pressure 29.98 in
Visibility 5.0 miles
Clouds Few 1700 ft
Windchill 7 °F
Dew Point 1 °F
Humidity 78%
Rainfall 0.00 in
Snow Depth Not available.
7:01 AM 5:14 PM
Waxing Crescent, 21% visible
SPECI KIMT 121434Z AUTO 30011KT 5SM HZ FEW017 M13/M17 A2998 RMK AO2 T11281167 TSNO

10-Day Weather Forecast

Almanac

Astronomy

Feb. 12, 2016 Rise Set
Actual Time
Civil Twilight
Nautical Twilight
Astronomical Twilight
Moon
Length of Visible Light
Length of Day
Tomorrow will be .
, % of the Moon is Illuminated

Today's Extremes

State Highs State Lows

Community

WunderPhotos

Upload Photos

1,892,318 photos uploaded!

WunderBlog® & News

Nearby

Air Quality

  Air Quality AQ Index Pollutant
Not available.

Snow Depth

Station Depth Elevation

Earthquake Activity

City Distance Mag. Time & Date
Minimum magnitude displayed is 2.5.

Coastal Water Temperatures

Place Temperature

Stations

Nearby Weather Stations

Station Location Temp. Windchill Dew Point Humidity Wind Precip. Elev Updated Type
                   

Watches & Warnings

Wind Chill Advisory
Issued: 3:59 AM CST Feb. 12, 2016 – National Weather Service

... Wind Chill Advisory remains in effect from 9 am this morning
to 9 am CST Saturday...

Hazardous weather...

* wind chill readings will drop as low as 25 below zero late this
   morning through tonight.

* The very low wind chills will cause frostbite in as little as
   30 minutes to exposed skin.

Precautionary/preparedness actions...

* a Wind Chill Advisory means that very cold air and strong
   winds will combine to generate low wind chills.

* Prepare... plan... and stay informed. Visit www.Weather.Gov/MQT



Kec